Time;durP1;ratioP1;P1;durP2;ratioP2;P2;SDS_P1;SDS_P2;PMS_P1;PMS_P2;Temp;Humidity;BMP_temperature;BMP_pressure;BME280_temperature;BME280_humidity;BME280_pressure;Samples;Min_cycle;Max_cycle;Signal;HPM_P1;HPM_P2
2021/10/23 00:01:51;;;;;;;57.93;2.70;;;8.30;1.00;;;;;;5052681;28;20534;-65
2021/10/23 00:04:18;;;;;;;58.20;2.63;;;8.30;1.00;;;;;;5052913;28;20489;-65
2021/10/23 00:06:45;;;;;;;58.13;2.50;;;8.30;1.00;;;;;;5052466;28;20867;-65
2021/10/23 00:09:12;;;;;;;58.07;2.67;;;8.30;1.00;;;;;;5052453;28;20519;-65
2021/10/23 00:11:38;;;;;;;58.07;2.57;;;8.30;1.00;;;;;;5052566;28;20891;-65
2021/10/23 00:14:05;;;;;;;58.20;2.80;;;8.30;1.00;;;;;;5052198;28;20458;-65
2021/10/23 00:16:34;;;;;;;58.07;2.60;;;8.30;1.00;;;;;;5051867;28;20487;-65
2021/10/23 00:19:00;;;;;;;58.15;2.80;;;8.30;1.00;;;;;;5058228;28;20566;-65
2021/10/23 00:21:27;;;;;;;58.27;2.60;;;8.10;1.00;;;;;;5072253;28;20778;-68
2021/10/23 00:23:54;;;;;;;58.10;2.57;;;8.10;1.00;;;;;;5072397;28;20445;-66
2021/10/23 00:26:21;;;;;;;58.23;2.70;;;8.00;1.00;;;;;;5071984;28;20537;-65
2021/10/23 00:28:48;;;;;;;58.23;2.50;;;8.00;1.00;;;;;;5072124;28;20496;-66
2021/10/23 00:31:15;;;;;;;58.27;2.60;;;7.90;1.00;;;;;;5071936;28;20528;-66
2021/10/23 00:33:43;;;;;;;58.60;3.20;;;7.90;1.00;;;;;;5071850;28;21028;-65
2021/10/23 00:36:10;;;;;;;58.37;2.63;;;7.80;1.00;;;;;;5071600;28;20500;-68
2021/10/23 00:38:36;;;;;;;58.13;2.57;;;7.70;1.00;;;;;;5071824;28;20529;-65
2021/10/23 00:41:04;;;;;;;58.37;2.80;;;7.70;1.00;;;;;;5071776;28;20487;-65
2021/10/23 00:43:31;;;;;;;58.47;2.67;;;7.70;1.00;;;;;;5071996;28;20887;-65
2021/10/23 00:45:57;;;;;;;58.30;2.80;;;7.70;1.00;;;;;;5071430;28;20955;-65
2021/10/23 00:48:24;;;;;;;58.17;2.80;;;7.80;1.00;;;;;;5072047;28;20458;-65
2021/10/23 00:50:53;;;;;;;58.43;2.87;;;7.80;1.00;;;;;;5069697;28;20837;-65
2021/10/23 00:53:22;;;;;;;58.27;2.80;;;7.70;1.00;;;;;;5071721;28;20446;-65
2021/10/23 00:55:49;;;;;;;58.30;2.77;;;7.70;1.00;;;;;;5071505;28;20453;-65
2021/10/23 00:58:16;;;;;;;58.27;2.77;;;7.70;1.00;;;;;;5071616;28;20517;-65
2021/10/23 01:00:43;;;;;;;58.30;2.60;;;7.60;1.00;;;;;;5071609;28;20833;-65
2021/10/23 01:03:10;;;;;;;58.37;2.90;;;7.60;1.00;;;;;;5072094;28;20446;-65
2021/10/23 01:05:37;;;;;;;58.27;2.70;;;7.70;1.00;;;;;;5071379;28;20821;-65
2021/10/23 01:08:05;;;;;;;58.03;2.90;;;7.60;1.00;;;;;;5071779;28;20452;-65
2021/10/23 01:10:32;;;;;;;58.23;2.80;;;7.60;1.00;;;;;;5071305;28;20557;-65
2021/10/23 01:12:59;;;;;;;58.33;2.83;;;7.50;1.00;;;;;;5071383;28;20480;-67
2021/10/23 01:15:29;;;;;;;58.70;2.92;;;7.50;1.00;;;;;;5071439;28;20452;-66
2021/10/23 01:17:58;;;;;;;58.37;2.90;;;7.50;1.00;;;;;;5071322;28;20228;-65
2021/10/23 01:20:28;;;;;;;58.27;2.50;;;7.50;1.00;;;;;;5071274;28;20915;-68
2021/10/23 01:22:56;;;;;;;58.30;2.80;;;7.50;1.00;;;;;;5070017;28;20817;-65
2021/10/23 01:25:25;;;;;;;60.75;3.33;;;7.50;1.00;;;;;;5071329;28;20210;-66
2021/10/23 01:27:55;;;;;;;58.27;3.07;;;7.50;1.00;;;;;;5071679;28;20569;-65
2021/10/23 01:30:23;;;;;;;58.13;2.77;;;7.60;1.00;;;;;;5071652;28;20472;-66
2021/10/23 01:32:51;;;;;;;59.37;3.40;;;7.60;1.00;;;;;;5071428;28;20448;-65
2021/10/23 01:35:18;;;;;;;58.38;2.88;;;7.70;1.00;;;;;;5051126;28;20946;-66
2021/10/23 01:37:48;;;;;;;58.17;2.90;;;7.60;1.00;;;;;;5051263;28;20235;-65
2021/10/23 01:40:18;;;;;;;58.27;2.83;;;7.60;1.00;;;;;;5051151;28;20557;-65
2021/10/23 01:42:45;;;;;;;58.07;2.70;;;7.50;1.00;;;;;;5051419;28;20529;-65
2021/10/23 01:45:12;;;;;;;58.05;2.60;;;7.50;1.00;;;;;;5051229;28;20487;-65
2021/10/23 01:47:40;;;;;;;58.17;2.83;;;7.50;1.00;;;;;;5051051;28;20579;-64
2021/10/23 01:50:12;;;;;;;58.28;2.72;;;7.50;1.00;;;;;;5051035;28;20844;-65
2021/10/23 01:52:39;;;;;;;58.47;3.00;;;7.40;1.00;;;;;;5050430;28;20216;-69
2021/10/23 01:55:09;;;;;;;58.10;2.80;;;7.40;1.00;;;;;;5070698;28;20535;-66
2021/10/23 01:57:36;;;;;;;58.30;2.87;;;7.40;1.00;;;;;;5070906;28;20443;-65
2021/10/23 02:00:03;;;;;;;58.50;2.90;;;7.40;1.00;;;;;;5070970;28;20556;-66
2021/10/23 02:02:30;;;;;;;58.17;2.90;;;7.40;1.00;;;;;;5070904;28;20547;-68
2021/10/23 02:04:57;;;;;;;58.38;2.85;;;7.40;1.00;;;;;;5071318;28;20213;-66
2021/10/23 02:07:24;;;;;;;58.25;2.72;;;7.50;1.00;;;;;;5070619;28;20233;-65
2021/10/23 02:09:50;;;;;;;58.28;2.70;;;7.50;1.00;;;;;;5071033;28;20280;-67
2021/10/23 02:12:19;;;;;;;58.37;2.70;;;7.60;1.00;;;;;;5071008;28;20253;-65
2021/10/23 02:14:46;;;;;;;58.30;3.33;;;7.60;1.00;;;;;;5070823;28;20532;-65
2021/10/23 02:17:13;;;;;;;58.37;2.87;;;7.60;1.00;;;;;;5070430;28;20202;-65
2021/10/23 02:19:40;;;;;;;58.40;3.37;;;7.70;1.00;;;;;;5070749;28;21063;-66
2021/10/23 02:22:07;;;;;;;58.27;3.07;;;7.70;1.00;;;;;;5073573;28;20454;-66
2021/10/23 02:24:34;;;;;;;58.70;3.10;;;7.70;1.00;;;;;;5073132;28;20451;-67
2021/10/23 02:27:00;;;;;;;58.75;3.75;;;7.70;1.00;;;;;;5074526;28;20230;-64
2021/10/23 02:29:29;;;;;;;58.08;2.70;;;7.70;1.00;;;;;;5074410;28;20337;-66
2021/10/23 02:31:56;;;;;;;58.23;2.60;;;7.70;1.00;;;;;;5074214;28;20252;-65
2021/10/23 02:34:22;;;;;;;58.07;2.53;;;7.70;1.00;;;;;;5074342;28;20446;-65
2021/10/23 02:36:49;;;;;;;58.27;2.67;;;7.70;1.00;;;;;;5074106;28;20480;-67
2021/10/23 02:39:16;;;;;;;58.57;3.00;;;7.70;1.00;;;;;;5074170;28;20551;-66
2021/10/23 02:41:43;;;;;;;58.57;2.90;;;7.70;1.00;;;;;;5074140;28;21116;-65
2021/10/23 02:44:10;;;;;;;58.70;2.90;;;7.70;1.00;;;;;;5074057;28;20455;-66
2021/10/23 02:46:38;;;;;;;58.38;2.70;;;7.70;1.00;;;;;;5074096;28;20487;-65
2021/10/23 02:49:07;;;;;;;58.27;2.87;;;7.70;1.00;;;;;;5074096;28;20327;-64
2021/10/23 02:51:34;;;;;;;57.97;2.70;;;7.70;1.00;;;;;;5074043;28;20448;-66
2021/10/23 02:54:01;;;;;;;57.97;2.73;;;7.70;1.00;;;;;;5074115;28;20532;-66
2021/10/23 02:56:28;;;;;;;58.30;2.80;;;7.70;1.00;;;;;;5073304;28;20941;-67
2021/10/23 02:58:55;;;;;;;58.17;2.53;;;7.70;1.00;;;;;;5073046;28;20495;-65
2021/10/23 03:01:21;;;;;;;58.20;2.80;;;7.70;1.00;;;;;;5074177;28;20483;-65
2021/10/23 03:03:50;;;;;;;58.20;2.63;;;7.70;1.00;;;;;;5073951;28;20856;-66
2021/10/23 03:06:18;;;;;;;58.27;2.80;;;7.80;1.00;;;;;;5073507;28;20528;-65
2021/10/23 03:08:45;;;;;;;58.33;2.70;;;7.80;1.00;;;;;;5073647;28;20492;-65
2021/10/23 03:11:12;;;;;;;58.17;2.50;;;7.80;1.00;;;;;;5073722;28;20843;-65
2021/10/23 03:13:39;;;;;;;58.20;2.70;;;7.80;1.00;;;;;;5073780;28;20462;-65
2021/10/23 03:16:06;;;;;;;57.93;2.60;;;7.90;1.00;;;;;;5073352;28;20514;-65
2021/10/23 03:18:33;;;;;;;58.07;2.63;;;7.90;1.00;;;;;;5073840;28;20441;-66
2021/10/23 03:21:01;;;;;;;58.27;2.83;;;7.90;1.00;;;;;;5074136;28;20484;-65
2021/10/23 03:23:28;;;;;;;58.27;2.53;;;7.90;1.00;;;;;;5073609;28;20532;-65
2021/10/23 03:25:55;;;;;;;58.08;2.60;;;7.90;1.00;;;;;;5073090;28;20536;-66
2021/10/23 03:28:22;;;;;;;58.50;2.90;;;7.90;1.00;;;;;;5073621;28;20230;-65
2021/10/23 03:30:48;;;;;;;58.07;2.73;;;8.00;1.00;;;;;;5073335;28;21060;-67
2021/10/23 03:33:15;;;;;;;58.33;2.60;;;8.00;1.00;;;;;;5073488;28;20468;-66
2021/10/23 03:35:42;;;;;;;57.93;2.50;;;8.00;1.00;;;;;;5073048;28;20488;-65
2021/10/23 03:38:10;;;;;;;58.10;2.73;;;8.00;1.00;;;;;;5073268;28;20508;-67
2021/10/23 03:40:37;;;;;;;58.10;2.60;;;8.00;1.00;;;;;;5073081;28;20499;-65
2021/10/23 03:43:04;;;;;;;58.17;2.70;;;8.00;1.00;;;;;;5073419;28;20532;-64
2021/10/23 03:45:31;;;;;;;58.27;2.80;;;8.10;1.00;;;;;;5072913;28;20575;-66
2021/10/23 03:47:58;;;;;;;58.17;2.80;;;8.10;1.00;;;;;;5073093;28;20927;-65
2021/10/23 03:50:25;;;;;;;58.17;2.70;;;8.10;1.00;;;;;;5072906;28;20915;-65
2021/10/23 03:52:52;;;;;;;58.37;2.77;;;8.10;1.00;;;;;;5072840;28;20445;-66
2021/10/23 03:55:20;;;;;;;58.33;2.73;;;8.10;1.00;;;;;;5072793;28;20460;-65
2021/10/23 03:57:47;;;;;;;58.03;2.43;;;8.10;1.00;;;;;;5072809;28;20534;-65
2021/10/23 04:00:14;;;;;;;58.20;2.60;;;8.10;1.00;;;;;;5073108;28;20962;-65
2021/10/23 04:02:41;;;;;;;57.87;2.60;;;8.10;1.00;;;;;;5072821;28;20453;-64
2021/10/23 04:05:09;;;;;;;58.07;2.87;;;8.10;1.00;;;;;;5072677;28;20532;-65
2021/10/23 04:07:36;;;;;;;58.07;2.77;;;8.10;1.00;;;;;;5072222;28;20478;-67
2021/10/23 04:10:03;;;;;;;58.03;2.80;;;8.10;1.00;;;;;;5072745;28;20918;-65
2021/10/23 04:12:32;;;;;;;58.30;2.90;;;8.10;1.00;;;;;;5072616;28;20537;-66
2021/10/23 04:15:00;;;;;;;57.90;2.97;;;8.10;1.00;;;;;;5072611;28;20449;-67
2021/10/23 04:17:27;;;;;;;58.37;2.80;;;8.10;1.00;;;;;;5072247;28;20476;-64
2021/10/23 04:19:54;;;;;;;58.13;2.87;;;8.10;1.00;;;;;;5072298;28;20477;-65
2021/10/23 04:22:21;;;;;;;58.03;2.90;;;8.20;1.00;;;;;;5072355;28;21016;-65
2021/10/23 04:24:48;;;;;;;58.17;2.83;;;8.10;1.00;;;;;;5072261;28;20448;-65
2021/10/23 04:27:15;;;;;;;57.97;2.93;;;8.20;1.00;;;;;;5071942;28;20452;-65
2021/10/23 04:29:43;;;;;;;58.10;3.00;;;8.20;1.00;;;;;;5072023;28;20469;-67
2021/10/23 04:32:10;;;;;;;58.07;3.00;;;8.10;1.00;;;;;;5072221;28;20529;-67
2021/10/23 04:34:37;;;;;;;58.17;3.00;;;8.10;1.00;;;;;;5072072;28;20974;-65
2021/10/23 04:37:04;;;;;;;58.07;3.00;;;8.10;1.00;;;;;;5071878;28;20990;-64
2021/10/23 04:39:31;;;;;;;58.17;3.00;;;8.10;1.00;;;;;;5072173;28;20461;-65
2021/10/23 04:41:59;;;;;;;57.87;3.00;;;8.10;1.00;;;;;;5072356;28;21118;-65
2021/10/23 04:44:26;;;;;;;57.93;2.80;;;8.10;1.00;;;;;;5071739;28;20453;-64
2021/10/23 04:46:54;;;;;;;57.97;2.80;;;8.00;1.00;;;;;;5071683;28;20547;-64
2021/10/23 04:49:21;;;;;;;58.17;2.90;;;8.00;1.00;;;;;;5071728;28;20493;-67
2021/10/23 04:51:47;;;;;;;58.10;2.90;;;8.00;1.00;;;;;;5072157;28;20236;-65
2021/10/23 04:54:14;;;;;;;57.97;2.80;;;8.00;1.00;;;;;;5072054;28;20475;-65
2021/10/23 04:56:41;;;;;;;58.07;2.70;;;8.00;1.00;;;;;;5071651;28;20448;-66
2021/10/23 04:59:08;;;;;;;60.50;3.23;;;8.00;1.00;;;;;;5071510;28;20552;-64
2021/10/23 05:01:35;;;;;;;57.87;2.80;;;8.00;1.00;;;;;;5071673;28;20448;-65
2021/10/23 05:04:04;;;;;;;58.50;3.77;;;8.00;1.00;;;;;;5071745;28;21021;-64
2021/10/23 05:06:30;;;;;;;57.83;2.50;;;8.10;1.00;;;;;;5071462;28;20492;-64
2021/10/23 05:08:57;;;;;;;58.47;2.90;;;8.10;1.00;;;;;;5071548;28;20489;-65
2021/10/23 05:11:24;;;;;;;58.87;2.90;;;8.10;1.00;;;;;;5071704;28;20539;-64
2021/10/23 05:13:51;;;;;;;58.20;3.00;;;8.10;1.00;;;;;;5071715;28;20557;-64
2021/10/23 05:16:18;;;;;;;58.17;2.90;;;8.10;1.00;;;;;;5071287;28;20968;-65
2021/10/23 05:18:48;;;;;;;58.07;2.67;;;8.10;1.00;;;;;;5071806;28;20448;-65
2021/10/23 05:21:17;;;;;;;58.10;2.63;;;8.10;1.00;;;;;;5071877;28;20459;-64
2021/10/23 05:23:44;;;;;;;58.27;2.80;;;8.10;1.00;;;;;;5071664;28;20453;-65
2021/10/23 05:26:11;;;;;;;58.10;2.60;;;8.20;1.00;;;;;;5071732;28;20457;-65
2021/10/23 05:28:38;;;;;;;58.10;2.50;;;8.20;1.00;;;;;;5071276;28;20568;-65
2021/10/23 05:31:05;;;;;;;58.20;2.80;;;8.20;1.00;;;;;;5071800;28;20818;-64
2021/10/23 05:33:32;;;;;;;57.87;2.63;;;8.20;1.00;;;;;;5071847;28;20884;-65
2021/10/23 05:35:59;;;;;;;57.97;3.10;;;8.20;1.00;;;;;;5071278;28;20499;-65
2021/10/23 05:38:27;;;;;;;57.93;2.80;;;8.20;1.00;;;;;;5071368;28;20539;-65
2021/10/23 05:40:54;;;;;;;58.37;3.27;;;8.20;1.00;;;;;;5071437;28;20492;-68
2021/10/23 05:43:21;;;;;;;58.20;2.70;;;8.20;1.00;;;;;;5071329;28;20455;-65
2021/10/23 05:45:48;;;;;;;57.93;2.60;;;8.20;1.00;;;;;;5071321;28;20541;-65
2021/10/23 05:48:15;;;;;;;57.93;2.67;;;8.20;1.00;;;;;;5071269;28;20481;-65
2021/10/23 05:50:42;;;;;;;58.30;2.93;;;8.20;1.00;;;;;;5071458;28;20915;-65
2021/10/23 05:53:09;;;;;;;58.17;2.73;;;8.20;1.00;;;;;;5071268;28;20449;-65
2021/10/23 05:55:37;;;;;;;58.17;2.90;;;8.20;1.00;;;;;;5071400;28;20460;-65
2021/10/23 05:58:05;;;;;;;57.90;2.63;;;8.20;1.00;;;;;;5075107;28;20445;-65
2021/10/23 06:00:34;;;;;;;58.10;2.80;;;8.10;1.00;;;;;;5075265;28;20472;-65
2021/10/23 06:03:01;;;;;;;57.97;2.60;;;8.10;1.00;;;;;;5075343;28;20499;-65
2021/10/23 06:05:29;;;;;;;58.07;2.60;;;8.10;1.00;;;;;;5074757;28;20506;-65
2021/10/23 06:07:56;;;;;;;57.87;2.50;;;8.10;1.00;;;;;;5074952;28;20480;-65
2021/10/23 06:10:23;;;;;;;65.03;3.50;;;8.10;1.00;;;;;;5074691;28;20468;-65
2021/10/23 06:12:52;;;;;;;57.87;2.60;;;8.10;1.00;;;;;;5074734;28;20555;-65
2021/10/23 06:15:19;;;;;;;57.97;2.90;;;8.10;1.00;;;;;;5074967;28;20452;-65
2021/10/23 06:17:46;;;;;;;58.17;2.43;;;8.10;1.00;;;;;;5074878;28;20542;-66
2021/10/23 06:20:13;;;;;;;57.70;2.60;;;8.10;1.00;;;;;;5074754;28;20554;-66
2021/10/23 06:22:49;;;;;;;58.07;2.80;;;8.10;1.00;;;;;;5074790;28;20531;-65
2021/10/23 06:25:17;;;;;;;59.73;2.87;;;8.10;1.00;;;;;;5074838;28;20448;-65
2021/10/23 06:27:44;;;;;;;57.83;2.50;;;8.10;1.00;;;;;;5074534;28;20449;-66
2021/10/23 06:30:13;;;;;;;58.13;2.63;;;8.10;1.00;;;;;;5074385;28;20483;-65
2021/10/23 06:32:45;;;;;;;57.77;2.67;;;8.10;1.00;;;;;;5074629;28;20472;-66
2021/10/23 06:35:12;;;;;;;58.10;2.60;;;8.10;1.00;;;;;;5074351;28;20450;-65
2021/10/23 06:37:39;;;;;;;58.07;2.70;;;8.10;1.00;;;;;;5074065;28;20450;-65
2021/10/23 06:40:07;;;;;;;57.93;2.37;;;8.10;1.00;;;;;;5074488;28;20473;-66
2021/10/23 06:42:34;;;;;;;57.87;2.70;;;8.10;1.00;;;;;;5074425;28;20538;-66
2021/10/23 06:45:02;;;;;;;57.87;2.50;;;8.10;1.00;;;;;;5074171;28;20541;-66
2021/10/23 06:47:30;;;;;;;57.87;2.53;;;8.10;1.00;;;;;;5074023;28;20825;-65
2021/10/23 06:49:58;;;;;;;57.93;2.67;;;8.20;1.00;;;;;;5073966;28;21032;-65
2021/10/23 06:52:25;;;;;;;57.97;2.70;;;8.20;1.00;;;;;;5074128;28;20515;-66
2021/10/23 06:54:52;;;;;;;58.00;2.60;;;8.20;1.00;;;;;;5074229;28;20532;-66
2021/10/23 06:57:19;;;;;;;58.10;2.70;;;8.20;1.00;;;;;;5073730;28;20970;-66
2021/10/23 06:59:46;;;;;;;58.30;3.03;;;8.30;1.00;;;;;;5074124;28;20477;-65
2021/10/23 07:02:13;;;;;;;57.87;2.70;;;8.30;1.00;;;;;;5074039;28;20445;-66
2021/10/23 07:04:41;;;;;;;57.87;2.70;;;8.40;1.00;;;;;;5073683;28;20539;-65
2021/10/23 07:07:08;;;;;;;57.87;2.60;;;8.50;1.00;;;;;;5073456;28;20490;-66
2021/10/23 07:09:35;;;;;;;57.87;2.50;;;8.50;1.00;;;;;;5073926;28;20492;-65
2021/10/23 07:12:03;;;;;;;57.97;2.47;;;8.60;1.00;;;;;;5073900;28;20454;-65
2021/10/23 07:14:30;;;;;;;58.07;2.50;;;8.60;1.00;;;;;;5073667;28;20461;-66
2021/10/23 07:16:56;;;;;;;58.10;2.60;;;8.60;1.00;;;;;;5073265;28;20493;-66
2021/10/23 07:19:23;;;;;;;58.03;2.70;;;8.70;1.00;;;;;;5073449;28;20545;-66
2021/10/23 07:21:51;;;;;;;58.00;2.57;;;8.80;1.00;;;;;;5073576;28;20450;-65
2021/10/23 07:24:19;;;;;;;57.83;2.50;;;8.80;1.00;;;;;;5073602;28;20456;-66
2021/10/23 07:26:47;;;;;;;58.00;2.70;;;8.90;1.00;;;;;;5073239;28;20449;-65
2021/10/23 07:29:13;;;;;;;57.77;2.67;;;9.00;1.00;;;;;;5073305;28;20486;-66
2021/10/23 07:31:41;;;;;;;58.17;2.70;;;9.00;1.00;;;;;;5073377;28;20557;-66
2021/10/23 07:34:08;;;;;;;58.03;2.60;;;9.10;1.00;;;;;;5073576;28;20460;-65
2021/10/23 07:36:35;;;;;;;57.73;2.50;;;9.10;1.00;;;;;;5072851;28;20980;-66
2021/10/23 07:39:03;;;;;;;57.87;2.57;;;9.10;1.00;;;;;;5073411;28;20473;-66
2021/10/23 07:41:30;;;;;;;58.20;2.93;;;9.10;1.00;;;;;;5073276;28;20450;-65
2021/10/23 07:43:57;;;;;;;58.00;3.20;;;9.10;1.00;;;;;;5073192;28;21022;-66
2021/10/23 07:46:25;;;;;;;57.83;2.70;;;9.00;1.00;;;;;;5072604;28;20488;-66
2021/10/23 07:48:52;;;;;;;57.73;2.60;;;9.00;1.00;;;;;;5072877;28;20569;-67
2021/10/23 07:51:19;;;;;;;57.97;2.70;;;9.00;1.00;;;;;;5073178;28;20481;-65
2021/10/23 07:53:45;;;;;;;57.80;2.60;;;9.00;1.00;;;;;;5073104;28;20549;-65
2021/10/23 07:56:14;;;;;;;58.77;4.30;;;9.10;1.00;;;;;;5072558;28;20488;-65
2021/10/23 07:58:41;;;;;;;58.27;2.73;;;9.10;1.00;;;;;;5072734;28;20446;-66
2021/10/23 08:01:07;;;;;;;57.90;2.70;;;9.20;1.00;;;;;;5073060;28;20449;-65
2021/10/23 08:03:34;;;;;;;58.10;2.60;;;9.20;1.00;;;;;;5072764;28;20542;-66
2021/10/23 08:06:01;;;;;;;58.10;2.60;;;9.30;1.00;;;;;;5072299;28;20486;-66
2021/10/23 08:08:28;;;;;;;57.87;2.57;;;9.40;1.00;;;;;;5072633;28;20485;-66
2021/10/23 08:10:58;;;;;;;57.83;2.70;;;9.50;1.00;;;;;;5072447;28;21054;-66
2021/10/23 08:13:26;;;;;;;57.73;2.57;;;9.50;1.00;;;;;;5072326;28;20462;-66
2021/10/23 08:15:53;;;;;;;57.83;2.60;;;9.50;1.00;;;;;;5072121;28;20546;-65
2021/10/23 08:18:21;;;;;;;57.83;2.67;;;9.60;1.00;;;;;;5071805;28;20456;-67
2021/10/23 08:20:48;;;;;;;57.87;2.50;;;9.70;1.00;;;;;;5072339;28;21055;-65
2021/10/23 08:23:15;;;;;;;57.80;2.70;;;9.70;1.00;;;;;;5072307;28;20481;-65
2021/10/23 08:25:42;;;;;;;58.07;2.70;;;9.80;1.00;;;;;;5071944;28;20518;-67
2021/10/23 08:28:08;;;;;;;57.90;2.37;;;9.80;1.00;;;;;;5072227;28;20451;-65
2021/10/23 08:30:37;;;;;;;58.03;2.50;;;9.80;1.00;;;;;;5072250;28;20518;-66
2021/10/23 08:33:04;;;;;;;57.73;2.90;;;9.90;1.00;;;;;;5072364;28;20453;-66
2021/10/23 08:35:31;;;;;;;57.77;2.60;;;9.90;1.00;;;;;;5071791;28;20546;-67
2021/10/23 08:37:59;;;;;;;57.90;2.70;;;10.10;1.00;;;;;;5072684;28;20553;-66
2021/10/23 08:40:27;;;;;;;58.07;2.80;;;10.10;1.00;;;;;;5071841;28;20466;-67
2021/10/23 08:42:54;;;;;;;57.87;2.80;;;10.20;1.00;;;;;;5072262;28;20461;-66
2021/10/23 08:45:22;;;;;;;58.20;2.60;;;10.30;1.00;;;;;;5072014;28;20502;-66
2021/10/23 08:47:50;;;;;;;58.20;2.70;;;10.40;1.00;;;;;;5072070;28;20447;-65
2021/10/23 08:50:19;;;;;;;57.97;2.60;;;10.60;1.00;;;;;;5071830;28;20576;-65
2021/10/23 08:52:47;;;;;;;58.03;2.70;;;10.90;1.00;;;;;;5071931;28;20541;-66
2021/10/23 08:55:14;;;;;;;57.87;2.43;;;11.20;1.00;;;;;;5071701;28;20530;-68
2021/10/23 08:57:42;;;;;;;57.87;2.53;;;11.70;1.00;;;;;;5071893;28;20479;-66
2021/10/23 09:00:10;;;;;;;58.10;2.90;;;12.00;1.00;;;;;;5072017;28;20909;-66
2021/10/23 09:02:37;;;;;;;58.17;3.10;;;12.30;1.00;;;;;;5071986;28;20875;-65
2021/10/23 09:05:09;;;;;;;57.97;2.60;;;12.40;1.00;;;;;;5071849;28;20530;-66
2021/10/23 09:07:42;;;;;;;58.13;2.73;;;12.50;1.00;;;;;;5071419;28;20457;-65
2021/10/23 09:10:09;;;;;;;58.10;2.87;;;12.50;1.00;;;;;;5071829;28;20495;-65
2021/10/23 09:12:38;;;;;;;58.17;2.80;;;12.60;1.00;;;;;;5071730;28;20530;-67
2021/10/23 09:15:07;;;;;;;57.83;2.70;;;12.80;1.00;;;;;;5071797;28;20475;-66
2021/10/23 09:17:34;;;;;;;58.03;3.13;;;12.80;1.00;;;;;;5071502;28;20454;-65
2021/10/23 09:20:09;;;;;;;57.87;2.50;;;12.90;1.00;;;;;;5071562;28;20470;-66
2021/10/23 09:22:38;;;;;;;57.87;2.50;;;13.00;1.00;;;;;;5071903;28;20451;-65
2021/10/23 09:25:19;;;;;;;58.07;2.80;;;13.10;1.00;;;;;;5071638;28;20453;-66
2021/10/23 09:27:48;;;;;;;58.17;2.73;;;13.10;1.00;;;;;;5071397;28;20533;-65
2021/10/23 09:30:16;;;;;;;57.67;2.47;;;13.20;1.00;;;;;;5072993;28;20505;-66
2021/10/23 09:32:49;;;;;;;57.97;2.60;;;13.20;1.00;;;;;;5075561;28;20516;-66
2021/10/23 09:35:18;;;;;;;58.43;2.70;;;13.40;1.00;;;;;;5075863;28;20676;-65
2021/10/23 09:37:46;;;;;;;58.33;3.43;;;14.60;1.00;;;;;;5075450;28;20453;-66
2021/10/23 09:40:20;;;;;;;58.17;2.60;;;15.80;1.00;;;;;;5075393;28;20467;-66
2021/10/23 09:42:47;;;;;;;57.97;2.47;;;16.50;1.00;;;;;;5075507;28;20540;-66
2021/10/23 09:45:14;;;;;;;58.33;2.60;;;18.10;1.00;;;;;;5075234;28;20970;-65
2021/10/23 09:47:43;;;;;;;58.23;2.57;;;19.50;1.00;;;;;;5075067;28;20894;-67
2021/10/23 09:50:14;;;;;;;57.77;2.40;;;20.60;1.00;;;;;;5075288;28;20497;-66
2021/10/23 09:53:06;;;;;;;57.97;2.30;;;21.80;1.00;;;;;;5075260;28;20446;-65
2021/10/23 09:55:53;;;;;;;57.87;2.50;;;22.80;1.00;;;;;;5074853;28;20446;-65
2021/10/23 09:58:21;;;;;;;57.77;2.27;;;24.00;1.00;;;;;;5075128;28;20981;-64
2021/10/23 10:00:49;;;;;;;57.40;1.90;;;24.80;1.00;;;;;;5075023;28;20461;-64
2021/10/23 10:03:20;;;;;;;57.57;2.30;;;25.20;1.00;;;;;;5075013;28;21050;-64
2021/10/23 10:05:53;;;;;;;57.67;2.20;;;25.80;1.00;;;;;;5074659;28;20450;-67
2021/10/23 10:08:22;;;;;;;57.43;2.30;;;26.40;1.00;;;;;;5075058;28;20447;-67
2021/10/23 10:10:51;;;;;;;57.07;2.07;;;26.70;1.00;;;;;;5074976;28;21041;-63
2021/10/23 10:13:22;;;;;;;57.33;2.00;;;27.10;1.00;;;;;;5074702;28;20461;-65
2021/10/23 10:15:50;;;;;;;61.00;2.07;;;27.60;99.90;;;;;;5074538;28;20475;-64
2021/10/23 10:18:18;;;;;;;56.97;1.93;;;27.60;99.90;;;;;;5074600;28;21016;-64
2021/10/23 10:20:46;;;;;;;57.27;2.03;;;28.20;99.90;;;;;;5074601;28;20471;-64
2021/10/23 10:23:17;;;;;;;57.40;2.00;;;28.80;99.90;;;;;;5074657;28;20813;-64
2021/10/23 10:25:53;;;;;;;57.13;1.97;;;28.90;99.90;;;;;;5074576;28;20446;-65
2021/10/23 10:28:20;;;;;;;57.47;2.20;;;29.30;99.90;;;;;;5074646;28;20464;-64
2021/10/23 10:30:53;;;;;;;57.27;1.90;;;28.80;99.90;;;;;;5074311;28;20515;-63
2021/10/23 10:33:22;;;;;;;57.37;2.00;;;27.10;99.90;;;;;;5074752;28;20451;-63
2021/10/23 10:36:16;;;;;;;57.67;2.10;;;25.20;99.90;;;;;;5074276;28;20454;-64
2021/10/23 10:44:29;;;;;;;58.10;2.47;;;21.70;99.90;;;;;;5074488;28;20438;-63
2021/10/23 10:47:18;;;;;;;57.90;2.30;;;21.80;1.00;;;;;;5074070;28;20449;-64
2021/10/23 10:49:56;;;;;;;57.67;2.30;;;22.80;99.90;;;;;;5074057;28;20482;-64
2021/10/23 10:52:54;;;;;;;57.67;2.13;;;22.90;1.00;;;;;;5074357;28;20456;-64
2021/10/23 10:55:22;;;;;;;57.63;2.17;;;24.40;1.00;;;;;;5074038;28;20443;-64
2021/10/23 10:58:02;;;;;;;57.73;2.20;;;25.70;99.90;;;;;;5073954;28;20452;-64
2021/10/23 11:01:13;;;;;;;60.63;3.30;;;27.20;99.90;;;;;;5074275;28;20458;-64
2021/10/23 11:03:56;;;;;;;57.33;1.80;;;28.10;99.90;;;;;;5074223;28;20805;-64
2021/10/23 11:06:56;;;;;;;57.13;2.00;;;29.50;99.90;;;;;;5073338;28;20865;-63
2021/10/23 11:09:42;;;;;;;57.97;2.07;;;30.70;99.90;;;;;;5073708;28;20468;-64
2021/10/23 11:12:39;;;;;;;56.90;1.83;;;31.50;99.90;;;;;;5073840;28;20517;-64
2021/10/23 11:15:54;;;;;;;57.67;2.40;;;32.50;99.90;;;;;;5073683;28;21089;-64
2021/10/23 11:18:21;;;;;;;57.20;2.07;;;33.40;99.90;;;;;;5037544;28;20459;-64
2021/10/23 11:20:48;;;;;;;57.27;2.10;;;32.10;99.90;;;;;;5073477;28;20537;-64
2021/10/23 11:23:21;;;;;;;62.43;2.70;;;29.90;99.90;;;;;;5073574;28;20488;-64
2021/10/23 11:25:48;;;;;;;58.00;2.80;;;27.90;99.90;;;;;;5073404;28;20458;-65
2021/10/23 11:28:15;;;;;;;57.37;1.87;;;27.90;99.90;;;;;;5073472;28;20843;-64
2021/10/23 11:30:44;;;;;;;59.50;3.30;;;27.20;99.90;;;;;;5073387;28;20552;-63
2021/10/23 11:33:17;;;;;;;57.47;2.20;;;27.10;99.90;;;;;;5073407;28;20449;-64
2021/10/23 11:35:46;;;;;;;57.47;1.90;;;28.80;99.90;;;;;;5072977;28;20817;-64
2021/10/23 11:38:20;;;;;;;57.40;2.00;;;31.00;99.90;;;;;;5073399;28;20472;-64
2021/10/23 11:40:47;;;;;;;57.40;2.80;;;32.80;99.90;;;;;;5073271;28;20490;-65
2021/10/23 11:43:18;;;;;;;63.87;4.10;;;34.30;99.90;;;;;;5073270;28;20447;-64
2021/10/23 11:45:47;;;;;;;57.07;2.00;;;35.50;99.90;;;;;;5072848;28;20551;-65
2021/10/23 11:48:17;;;;;;;57.20;1.90;;;36.40;99.90;;;;;;5073022;28;20443;-64
2021/10/23 11:50:46;;;;;;;57.33;2.50;;;37.10;99.90;;;;;;5073206;28;20764;-64
2021/10/23 11:53:17;;;;;;;56.87;2.03;;;36.90;99.90;;;;;;5072064;28;20551;-65
2021/10/23 11:55:46;;;;;;;57.17;2.00;;;37.10;99.90;;;;;;5072548;28;20458;-65
2021/10/23 11:58:14;;;;;;;57.23;2.10;;;35.80;99.90;;;;;;5072869;28;20448;-65
2021/10/23 12:00:45;;;;;;;57.40;2.10;;;33.10;99.90;;;;;;5072622;28;20490;-64
2021/10/23 12:03:15;;;;;;;57.57;2.40;;;30.80;99.90;;;;;;5072787;28;20534;-64
2021/10/23 12:05:48;;;;;;;57.50;2.00;;;30.90;99.90;;;;;;5072283;28;20978;-64
2021/10/23 12:08:24;;;;;;;57.03;2.00;;;31.50;99.90;;;;;;5072656;28;20969;-65
2021/10/23 12:11:13;;;;;;;57.27;1.80;;;32.40;99.90;;;;;;5072443;28;20474;-65
2021/10/23 12:13:54;;;;;;;57.70;2.00;;;32.80;99.90;;;;;;5072625;28;20570;-65
2021/10/23 12:16:36;;;;;;;57.03;1.70;;;34.00;99.90;;;;;;5072339;28;20451;-64
2021/10/23 12:19:07;;;;;;;65.90;2.70;;;35.20;99.90;;;;;;5072358;28;21013;-66
2021/10/23 12:21:40;;;;;;;57.20;2.47;;;36.10;99.90;;;;;;5072304;28;20920;-65
2021/10/23 12:24:22;;;;;;;57.07;2.00;;;37.60;99.90;;;;;;5072584;28;20447;-65
2021/10/23 12:27:19;;;;;;;57.20;2.10;;;38.80;99.90;;;;;;5071977;28;20535;-66
2021/10/23 12:29:48;;;;;;;56.80;2.10;;;39.20;99.90;;;;;;5072144;28;20903;-65
2021/10/23 12:32:16;;;;;;;56.80;1.83;;;39.30;99.90;;;;;;5072433;28;20890;-65
2021/10/23 12:35:00;;;;;;;56.87;2.03;;;39.50;99.90;;;;;;5072351;28;20594;-64
2021/10/23 12:37:51;;;;;;;56.90;1.87;;;40.30;99.90;;;;;;5072158;28;20459;-65
2021/10/23 12:40:25;;;;;;;56.80;1.80;;;40.40;99.90;;;;;;5068320;28;20931;-64
2021/10/23 12:42:56;;;;;;;56.67;1.80;;;40.50;99.90;;;;;;5072285;28;20533;-65
2021/10/23 12:45:25;;;;;;;56.80;1.80;;;40.40;99.90;;;;;;5072050;28;20455;-66
2021/10/23 12:47:53;;;;;;;57.50;2.20;;;41.00;99.90;;;;;;5072216;28;20535;-65
2021/10/23 12:50:23;;;;;;;56.83;2.07;;;41.70;99.90;;;;;;5071818;28;20512;-65
2021/10/23 12:52:51;;;;;;;57.00;2.00;;;42.10;99.90;;;;;;5072059;28;20754;-65
2021/10/23 12:55:18;;;;;;;56.67;1.77;;;42.40;99.90;;;;;;5072039;28;20452;-65
2021/10/23 12:57:45;;;;;;;56.37;1.90;;;42.90;99.90;;;;;;5071894;28;20543;-65
2021/10/23 13:00:13;;;;;;;56.27;1.67;;;42.70;99.90;;;;;;5071885;28;20867;-65
2021/10/23 13:02:40;;;;;;;56.87;2.00;;;41.80;99.90;;;;;;5071881;28;20447;-66
2021/10/23 13:05:08;;;;;;;57.00;1.90;;;39.30;99.90;;;;;;5071273;28;20453;-64
2021/10/23 13:07:36;;;;;;;56.97;2.00;;;37.60;99.90;;;;;;5071810;28;20526;-64